createdAt,value
2022-11-26T00:00:31.881Z,1.70
2022-11-26T00:03:19.939Z,1.70
2022-11-26T00:05:51.494Z,1.70
2022-11-26T00:08:34.373Z,1.70
2022-11-26T00:11:02.420Z,1.60
2022-11-26T00:13:31.012Z,1.60
2022-11-26T00:15:58.306Z,1.60
2022-11-26T00:18:26.792Z,1.60
2022-11-26T00:20:56.850Z,1.70
2022-11-26T00:23:26.196Z,1.60
2022-11-26T00:25:57.112Z,1.60
2022-11-26T00:28:27.131Z,1.60
2022-11-26T00:30:56.189Z,1.60
2022-11-26T00:33:24.013Z,1.60
2022-11-26T00:35:55.670Z,1.60
2022-11-26T00:38:23.353Z,1.60
2022-11-26T00:40:50.608Z,1.60
2022-11-26T00:43:18.648Z,1.60
2022-11-26T00:45:47.762Z,1.60
2022-11-26T00:48:15.580Z,1.60
2022-11-26T00:50:47.670Z,1.60
2022-11-26T00:53:18.097Z,1.60
2022-11-26T00:55:48.408Z,1.60
2022-11-26T00:58:30.380Z,1.60
2022-11-26T01:00:59.305Z,1.60
2022-11-26T01:03:26.595Z,1.60
2022-11-26T01:05:57.146Z,1.60
2022-11-26T01:08:28.996Z,1.60
2022-11-26T01:10:57.361Z,1.60
2022-11-26T01:13:24.376Z,1.60
2022-11-26T01:15:51.787Z,1.60
2022-11-26T01:18:21.285Z,1.60
2022-11-26T01:20:49.078Z,1.60
2022-11-26T01:23:18.810Z,1.60
2022-11-26T01:25:47.334Z,1.60
2022-11-26T01:28:18.415Z,1.60
2022-11-26T01:30:46.204Z,1.60
2022-11-26T01:33:13.176Z,1.60
2022-11-26T01:35:40.468Z,1.60
2022-11-26T01:38:12.954Z,1.60
2022-11-26T01:40:54.180Z,1.60
2022-11-26T01:43:47.692Z,1.60
2022-11-26T01:46:20.218Z,1.60
2022-11-26T01:48:48.631Z,1.60
2022-11-26T01:51:26.785Z,1.60
2022-11-26T01:54:00.774Z,1.60
2022-11-26T01:57:07.493Z,1.60
2022-11-26T01:59:39.254Z,1.60
2022-11-26T02:02:06.574Z,1.60
2022-11-26T02:04:38.484Z,1.60
2022-11-26T02:07:06.229Z,1.60
2022-11-26T02:09:33.536Z,1.60
2022-11-26T02:12:01.054Z,1.60
2022-11-26T02:14:46.227Z,1.60
2022-11-26T02:17:21.841Z,1.60
2022-11-26T02:20:27.896Z,1.60
2022-11-26T02:23:13.257Z,1.60
2022-11-26T02:26:12.940Z,1.60
2022-11-26T02:29:11.849Z,1.50
2022-11-26T02:32:13.827Z,1.50
2022-11-26T02:34:53.409Z,1.50
2022-11-26T02:37:27.876Z,1.40
2022-11-26T02:39:57.540Z,1.50
2022-11-26T02:42:28.922Z,1.50
2022-11-26T02:45:03.627Z,1.50
2022-11-26T02:47:32.602Z,1.50
2022-11-26T02:50:05.997Z,1.60
2022-11-26T02:52:35.217Z,1.60
2022-11-26T02:55:07.224Z,1.60
2022-11-26T02:57:42.227Z,1.60
2022-11-26T03:00:10.466Z,1.60
2022-11-26T03:03:22.361Z,1.60
2022-11-26T03:05:56.102Z,1.60
2022-11-26T03:08:24.046Z,1.60
2022-11-26T03:10:51.500Z,1.60
2022-11-26T03:13:18.510Z,1.60
2022-11-26T03:15:45.872Z,1.60
2022-11-26T03:18:12.830Z,1.50
2022-11-26T03:20:40.300Z,1.60
2022-11-26T03:23:07.559Z,1.60
2022-11-26T03:25:35.324Z,1.60
2022-11-26T03:28:02.771Z,1.60
2022-11-26T03:30:30.071Z,1.60
2022-11-26T03:32:57.099Z,1.50
2022-11-26T03:35:24.372Z,1.50
2022-11-26T03:37:53.872Z,1.50
2022-11-26T03:40:21.247Z,1.50
2022-11-26T03:42:48.313Z,1.50
2022-11-26T03:45:16.263Z,1.50
2022-11-26T03:47:43.297Z,1.50
2022-11-26T03:50:10.802Z,1.50
2022-11-26T03:52:37.758Z,1.50
2022-11-26T03:55:05.274Z,1.50
2022-11-26T03:57:32.256Z,1.50
2022-11-26T03:59:59.521Z,1.50
2022-11-26T04:02:26.566Z,1.40
2022-11-26T04:04:53.911Z,1.40
2022-11-26T04:07:20.950Z,1.50
2022-11-26T04:09:48.217Z,1.40
2022-11-26T04:12:15.161Z,1.40
2022-11-26T04:14:42.440Z,1.40
2022-11-26T04:17:09.455Z,1.40
2022-11-26T04:19:36.691Z,1.30
2022-11-26T04:22:03.785Z,1.30
2022-11-26T04:24:31.052Z,1.30
2022-11-26T04:26:58.017Z,1.30
2022-11-26T04:29:25.259Z,1.30
2022-11-26T04:31:52.237Z,1.30
2022-11-26T04:34:19.496Z,1.30
2022-11-26T04:36:46.496Z,1.20
2022-11-26T04:39:14.007Z,1.20
2022-11-26T04:41:42.865Z,1.30
2022-11-26T04:44:10.121Z,1.30
2022-11-26T04:46:37.119Z,1.30
2022-11-26T04:49:04.477Z,1.30
2022-11-26T04:51:31.568Z,1.30
2022-11-26T04:54:02.688Z,1.30
2022-11-26T04:56:30.314Z,1.30
2022-11-26T04:58:57.613Z,1.30
2022-11-26T05:01:24.703Z,1.30
2022-11-26T05:03:52.083Z,1.40
2022-11-26T05:06:19.088Z,1.40
2022-11-26T05:08:46.373Z,1.40
2022-11-26T05:11:13.578Z,1.40
2022-11-26T05:13:40.886Z,1.40
2022-11-26T05:16:08.040Z,1.40
2022-11-26T05:18:35.348Z,1.40
2022-11-26T05:21:05.826Z,1.40
2022-11-26T05:23:33.250Z,1.40
2022-11-26T05:26:00.258Z,1.50
2022-11-26T05:28:27.524Z,1.40
2022-11-26T05:30:59.819Z,1.40
2022-11-26T05:33:27.364Z,1.40
2022-11-26T05:35:54.370Z,1.40
2022-11-26T05:38:22.285Z,1.50
2022-11-26T05:40:49.410Z,1.50
2022-11-26T05:43:16.667Z,1.50
2022-11-26T05:45:43.852Z,1.40
2022-11-26T05:48:11.193Z,1.40
2022-11-26T05:50:38.359Z,1.40
2022-11-26T05:53:05.727Z,1.40
2022-11-26T05:55:32.837Z,1.40
2022-11-26T05:58:00.287Z,1.40
2022-11-26T06:00:27.475Z,1.30
2022-11-26T06:02:54.860Z,1.30
2022-11-26T06:05:22.248Z,1.30
2022-11-26T06:07:49.786Z,1.40
2022-11-26T06:10:17.057Z,1.40
2022-11-26T06:12:44.503Z,1.40
2022-11-26T06:15:11.503Z,1.50
2022-11-26T06:17:38.816Z,1.40
2022-11-26T06:20:06.789Z,1.50
2022-11-26T06:22:41.950Z,1.50
2022-11-26T06:25:10.635Z,1.50
2022-11-26T06:27:38.158Z,1.50
2022-11-26T06:30:07.758Z,1.50
2022-11-26T06:32:35.339Z,1.50
2022-11-26T06:35:02.278Z,1.50
2022-11-26T06:37:29.739Z,1.50
2022-11-26T06:39:56.636Z,1.50
2022-11-26T06:42:23.954Z,1.50
2022-11-26T06:44:50.951Z,1.60
2022-11-26T06:47:18.193Z,1.60
2022-11-26T06:49:45.210Z,1.60
2022-11-26T06:52:13.650Z,1.60
2022-11-26T06:54:40.772Z,1.60
2022-11-26T06:57:08.717Z,1.70
2022-11-26T06:59:35.726Z,1.70
2022-11-26T07:02:03.066Z,1.70
2022-11-26T07:04:30.345Z,1.70
2022-11-26T07:06:57.600Z,1.70
2022-11-26T07:09:25.005Z,1.70
2022-11-26T07:11:52.435Z,1.70
2022-11-26T07:14:19.441Z,1.70
2022-11-26T07:16:46.744Z,1.70
2022-11-26T07:19:14.540Z,1.80
2022-11-26T07:21:42.231Z,1.80
2022-11-26T07:24:09.288Z,1.80
2022-11-26T07:26:36.584Z,1.80
2022-11-26T07:29:03.759Z,1.80
2022-11-26T07:31:31.148Z,1.90
2022-11-26T07:33:58.270Z,1.90
2022-11-26T07:36:29.028Z,1.90
2022-11-26T07:39:01.078Z,1.90
2022-11-26T07:41:29.402Z,1.90
2022-11-26T07:43:56.497Z,1.90
2022-11-26T07:46:26.127Z,2.00
2022-11-26T07:48:54.895Z,2.00
2022-11-26T07:51:33.099Z,2.00
2022-11-26T07:54:05.301Z,2.00
2022-11-26T07:56:32.740Z,2.00
2022-11-26T07:59:01.270Z,2.00
2022-11-26T08:01:29.898Z,2.10
2022-11-26T08:03:58.778Z,2.10
2022-11-26T08:06:28.906Z,2.10
2022-11-26T08:08:55.962Z,2.10
2022-11-26T08:11:25.576Z,2.20
2022-11-26T08:13:58.060Z,2.20
2022-11-26T08:16:28.699Z,2.30
2022-11-26T08:19:05.130Z,2.30
2022-11-26T08:21:33.257Z,2.40
2022-11-26T08:24:02.912Z,2.40
2022-11-26T08:26:35.054Z,2.50
2022-11-26T08:29:04.270Z,2.50
2022-11-26T08:31:32.033Z,2.60
2022-11-26T08:34:00.889Z,2.60
2022-11-26T08:36:29.164Z,2.70
2022-11-26T08:39:00.407Z,2.70
2022-11-26T08:41:28.010Z,2.60
2022-11-26T08:44:10.404Z,2.60
2022-11-26T08:46:42.140Z,2.70
2022-11-26T08:49:12.296Z,2.70
2022-11-26T08:51:39.639Z,2.70
2022-11-26T08:54:06.907Z,2.70
2022-11-26T08:56:34.679Z,2.70
2022-11-26T08:59:02.230Z,2.70
2022-11-26T09:01:35.144Z,2.70
2022-11-26T09:04:03.675Z,2.80
2022-11-26T09:06:33.371Z,2.80
2022-11-26T09:09:13.579Z,2.80
2022-11-26T09:11:50.159Z,2.80
2022-11-26T09:14:20.312Z,2.80
2022-11-26T09:16:47.965Z,2.70
2022-11-26T09:19:16.218Z,2.70
2022-11-26T09:21:44.454Z,2.80
2022-11-26T09:24:12.449Z,2.80
2022-11-26T09:26:40.244Z,2.80
2022-11-26T09:29:07.329Z,2.80
2022-11-26T09:31:34.581Z,2.70
2022-11-26T09:34:03.714Z,2.80
2022-11-26T09:36:31.015Z,2.80
2022-11-26T09:38:59.442Z,2.90
2022-11-26T09:41:32.570Z,2.90
2022-11-26T09:44:11.256Z,3.00
2022-11-26T09:47:11.150Z,3.10
2022-11-26T09:49:55.276Z,3.20
2022-11-26T09:52:26.473Z,3.10
2022-11-26T09:55:02.524Z,3.00
2022-11-26T09:57:38.745Z,2.90
2022-11-26T10:00:31.094Z,2.80
2022-11-26T10:02:58.954Z,2.80
2022-11-26T10:05:42.312Z,2.80
2022-11-26T10:08:52.747Z,2.90
2022-11-26T10:11:29.918Z,2.90
2022-11-26T10:14:25.974Z,2.90
2022-11-26T10:17:03.461Z,2.80
2022-11-26T10:20:00.297Z,2.70
2022-11-26T10:22:30.044Z,2.70
2022-11-26T10:24:59.868Z,2.80
2022-11-26T10:27:32.769Z,2.90
2022-11-26T10:30:07.285Z,2.90
2022-11-26T10:32:43.385Z,2.90
2022-11-26T10:35:22.489Z,2.90
2022-11-26T10:37:50.410Z,3.00
2022-11-26T10:40:31.528Z,3.00
2022-11-26T10:43:10.321Z,3.10
2022-11-26T10:45:43.357Z,3.30
2022-11-26T10:48:28.765Z,3.40
2022-11-26T10:50:58.055Z,3.40
2022-11-26T10:53:27.249Z,3.40
2022-11-26T10:56:03.494Z,3.40
2022-11-26T10:58:37.621Z,3.40
2022-11-26T11:01:06.954Z,3.50
2022-11-26T11:04:07.273Z,3.60
2022-11-26T11:06:41.537Z,3.80
2022-11-26T11:09:41.080Z,4.00
2022-11-26T11:12:11.244Z,4.10
2022-11-26T11:14:45.646Z,4.10
2022-11-26T11:17:19.332Z,4.10
2022-11-26T11:19:46.424Z,4.00
2022-11-26T11:22:21.050Z,4.00
2022-11-26T11:24:49.228Z,4.10
2022-11-26T11:27:39.433Z,4.10
2022-11-26T11:30:08.204Z,4.10
2022-11-26T11:32:40.348Z,4.10
2022-11-26T11:35:33.499Z,4.20
2022-11-26T11:38:00.837Z,4.10
2022-11-26T11:40:30.537Z,4.00
2022-11-26T11:43:01.508Z,4.00
2022-11-26T11:45:42.559Z,4.00
2022-11-26T11:48:12.759Z,4.10
2022-11-26T11:50:49.329Z,4.20
2022-11-26T11:53:31.039Z,4.20
2022-11-26T11:56:42.879Z,4.20
2022-11-26T12:00:11.661Z,4.20
2022-11-26T12:02:59.687Z,4.20
2022-11-26T12:05:57.950Z,4.30
2022-11-26T12:08:52.292Z,4.30
2022-11-26T12:11:25.529Z,4.20
2022-11-26T12:13:59.783Z,4.10
2022-11-26T12:16:32.939Z,4.00
2022-11-26T12:19:12.667Z,3.90
2022-11-26T12:21:52.034Z,3.90
2022-11-26T12:24:28.698Z,3.90
2022-11-26T12:27:02.425Z,4.00
2022-11-26T12:29:41.912Z,4.00
2022-11-26T12:32:32.463Z,4.00
2022-11-26T12:35:05.061Z,4.00
2022-11-26T12:37:39.105Z,4.00
2022-11-26T12:40:22.887Z,4.00
2022-11-26T12:43:01.371Z,4.00
2022-11-26T12:45:52.656Z,4.00
2022-11-26T12:48:43.378Z,3.90
2022-11-26T12:51:20.049Z,3.90
2022-11-26T12:54:07.114Z,3.90
2022-11-26T12:56:56.432Z,3.80
2022-11-26T12:59:45.635Z,3.80
2022-11-26T13:02:23.900Z,3.70
2022-11-26T13:04:52.732Z,3.70
2022-11-26T13:07:52.517Z,3.70
2022-11-26T13:10:38.566Z,3.60
2022-11-26T13:13:41.520Z,3.60
2022-11-26T13:16:36.952Z,3.60
2022-11-26T13:19:15.969Z,3.50
2022-11-26T13:22:02.849Z,3.50
2022-11-26T13:25:01.128Z,3.50
2022-11-26T13:27:57.425Z,3.40
2022-11-26T13:30:47.311Z,3.40
2022-11-26T13:33:45.857Z,3.30
2022-11-26T13:36:34.613Z,3.30
2022-11-26T13:39:27.905Z,3.20
2022-11-26T13:42:31.376Z,3.20
2022-11-26T13:45:17.640Z,3.10
2022-11-26T13:48:05.719Z,3.10
2022-11-26T13:50:50.910Z,3.00
2022-11-26T13:53:28.710Z,3.00
2022-11-26T13:56:01.242Z,3.00
2022-11-26T13:58:37.348Z,3.00
2022-11-26T14:01:28.017Z,3.00
2022-11-26T14:03:56.118Z,3.00
2022-11-26T14:06:28.242Z,3.00
2022-11-26T14:08:57.911Z,3.00
2022-11-26T14:11:46.274Z,3.00
2022-11-26T14:14:25.515Z,3.00
2022-11-26T14:17:02.151Z,3.00
2022-11-26T14:19:41.523Z,2.90
2022-11-26T14:22:33.208Z,2.90
2022-11-26T14:25:01.904Z,2.90
2022-11-26T14:27:32.534Z,2.90
2022-11-26T14:30:19.045Z,2.80
2022-11-26T14:32:59.492Z,2.80
2022-11-26T14:35:34.440Z,2.80
2022-11-26T14:38:04.667Z,2.70
2022-11-26T14:40:35.051Z,2.70
2022-11-26T14:43:16.469Z,2.70
2022-11-26T14:46:15.236Z,2.60
2022-11-26T14:48:45.658Z,2.60
2022-11-26T14:51:22.051Z,2.60
2022-11-26T14:53:54.083Z,2.60
2022-11-26T14:56:24.035Z,2.60
2022-11-26T14:58:58.522Z,2.60
2022-11-26T15:01:27.524Z,2.50
2022-11-26T15:03:58.454Z,2.50
2022-11-26T15:06:28.726Z,2.50
2022-11-26T15:09:15.926Z,2.50
2022-11-26T15:11:48.728Z,2.50
2022-11-26T15:14:49.905Z,2.50
2022-11-26T15:17:20.447Z,2.50
2022-11-26T15:19:51.791Z,2.60
2022-11-26T15:22:38.462Z,2.50
2022-11-26T15:25:19.508Z,2.50
2022-11-26T15:28:16.024Z,2.50
2022-11-26T15:31:00.111Z,2.50
2022-11-26T15:33:29.463Z,2.50
2022-11-26T15:35:57.955Z,2.50
2022-11-26T15:38:34.316Z,2.50
2022-11-26T15:41:28.346Z,2.40
2022-11-26T15:43:58.899Z,2.40
2022-11-26T15:46:30.954Z,2.40
2022-11-26T15:48:59.499Z,2.40
2022-11-26T15:51:35.401Z,2.40
2022-11-26T15:54:30.870Z,2.40
2022-11-26T15:57:27.373Z,2.40
2022-11-26T15:59:59.314Z,2.40
2022-11-26T16:02:28.641Z,2.40
2022-11-26T16:05:00.588Z,2.30
2022-11-26T16:07:30.914Z,2.40
2022-11-26T16:10:16.255Z,2.40
2022-11-26T16:12:45.073Z,2.40
2022-11-26T16:15:21.250Z,2.40
2022-11-26T16:17:50.127Z,2.30
2022-11-26T16:20:26.498Z,2.30
2022-11-26T16:22:58.704Z,2.30
2022-11-26T16:25:34.582Z,2.30
2022-11-26T16:28:08.237Z,2.30
2022-11-26T16:30:36.230Z,2.30
2022-11-26T16:33:04.885Z,2.30
2022-11-26T16:35:47.854Z,2.30
2022-11-26T16:38:25.456Z,2.30
2022-11-26T16:40:53.364Z,2.30
2022-11-26T16:43:21.817Z,2.30
2022-11-26T16:45:54.408Z,2.30
2022-11-26T16:48:25.601Z,2.30
2022-11-26T16:50:56.483Z,2.30
2022-11-26T16:53:24.165Z,2.30
2022-11-26T16:55:53.934Z,2.20
2022-11-26T16:58:33.065Z,2.20
2022-11-26T17:01:00.419Z,2.20
2022-11-26T17:03:32.718Z,2.20
2022-11-26T17:06:03.483Z,2.20
2022-11-26T17:08:30.885Z,2.20
2022-11-26T17:10:58.308Z,2.20
2022-11-26T17:13:27.481Z,2.20
2022-11-26T17:15:55.322Z,2.20
2022-11-26T17:18:24.836Z,2.20
2022-11-26T17:20:53.962Z,2.20
2022-11-26T17:23:21.433Z,2.20
2022-11-26T17:25:53.962Z,2.20
2022-11-26T17:28:23.171Z,2.20
2022-11-26T17:30:50.940Z,2.20
2022-11-26T17:33:19.195Z,2.20
2022-11-26T17:35:46.752Z,2.20
2022-11-26T17:38:17.088Z,2.20
2022-11-26T17:40:44.744Z,2.20
2022-11-26T17:43:12.954Z,2.20
2022-11-26T17:45:43.065Z,2.20
2022-11-26T17:48:14.628Z,2.20
2022-11-26T17:50:42.600Z,2.20
2022-11-26T17:53:10.086Z,2.20
2022-11-26T17:55:38.082Z,2.20
2022-11-26T17:58:05.445Z,2.20
2022-11-26T18:00:32.692Z,2.20
2022-11-26T18:03:03.013Z,2.20
2022-11-26T18:05:30.181Z,2.20
2022-11-26T18:07:57.569Z,2.10
2022-11-26T18:10:24.717Z,2.10
2022-11-26T18:12:55.325Z,2.10
2022-11-26T18:15:25.456Z,2.10
2022-11-26T18:17:54.727Z,2.10
2022-11-26T18:20:25.931Z,2.10
2022-11-26T18:22:55.128Z,2.10
2022-11-26T18:25:22.828Z,2.10
2022-11-26T18:27:50.290Z,2.10
2022-11-26T18:30:18.013Z,2.10
2022-11-26T18:32:46.158Z,2.10
2022-11-26T18:35:13.536Z,2.10
2022-11-26T18:37:41.361Z,2.10
2022-11-26T18:40:12.183Z,2.10
2022-11-26T18:42:39.775Z,2.10
2022-11-26T18:45:09.531Z,2.10
2022-11-26T18:47:37.682Z,2.10
2022-11-26T18:50:05.459Z,2.00
2022-11-26T18:52:32.743Z,1.90
2022-11-26T18:55:00.053Z,1.90
2022-11-26T18:57:28.080Z,1.90
2022-11-26T18:59:55.072Z,1.90
2022-11-26T19:02:22.540Z,1.90
2022-11-26T19:04:50.334Z,1.90
2022-11-26T19:07:17.682Z,1.90
2022-11-26T19:09:44.667Z,1.90
2022-11-26T19:12:14.984Z,1.90
2022-11-26T19:14:42.078Z,1.90
2022-11-26T19:17:09.919Z,1.90
2022-11-26T19:19:38.294Z,1.90
2022-11-26T19:22:06.243Z,1.80
2022-11-26T19:24:33.311Z,1.80
2022-11-26T19:27:00.657Z,1.80
2022-11-26T19:29:27.885Z,1.90
2022-11-26T19:31:55.573Z,1.90
2022-11-26T19:34:22.817Z,1.90
2022-11-26T19:36:53.280Z,1.90
2022-11-26T19:39:20.412Z,1.90
2022-11-26T19:41:48.121Z,1.80
2022-11-26T19:44:19.223Z,1.80
2022-11-26T19:46:48.356Z,1.80
2022-11-26T19:49:15.491Z,1.80
2022-11-26T19:51:43.048Z,1.80
2022-11-26T19:54:10.392Z,1.80
2022-11-26T19:56:38.375Z,1.80
2022-11-26T19:59:05.893Z,1.80
2022-11-26T20:01:34.633Z,1.90
2022-11-26T20:04:05.398Z,1.80
2022-11-26T20:06:34.393Z,1.70
2022-11-26T20:09:02.712Z,1.70
2022-11-26T20:11:30.159Z,1.80
2022-11-26T20:13:58.404Z,1.80
2022-11-26T20:16:28.432Z,1.80
2022-11-26T20:18:56.687Z,1.80
2022-11-26T20:21:26.149Z,1.80
2022-11-26T20:23:57.413Z,1.80
2022-11-26T20:26:27.889Z,1.80
2022-11-26T20:28:56.847Z,1.80
2022-11-26T20:31:24.644Z,1.80
2022-11-26T20:33:53.014Z,1.80
2022-11-26T20:36:22.972Z,1.80
2022-11-26T20:39:00.566Z,1.80
2022-11-26T20:41:29.103Z,1.80
2022-11-26T20:43:59.346Z,1.80
2022-11-26T20:46:28.691Z,1.80
2022-11-26T20:48:56.382Z,1.80
2022-11-26T20:51:24.971Z,1.80
2022-11-26T20:53:52.912Z,1.90
2022-11-26T20:56:21.416Z,1.90
2022-11-26T20:58:49.118Z,1.90
2022-11-26T21:01:17.675Z,1.90
2022-11-26T21:03:45.132Z,1.90
2022-11-26T21:06:14.108Z,1.90
2022-11-26T21:08:42.025Z,1.90
2022-11-26T21:11:16.089Z,1.90
2022-11-26T21:13:43.746Z,1.90
2022-11-26T21:16:14.688Z,1.80
2022-11-26T21:18:45.117Z,1.80
2022-11-26T21:21:15.026Z,1.80
2022-11-26T21:23:45.998Z,1.80
2022-11-26T21:26:17.517Z,1.80
2022-11-26T21:28:44.948Z,1.80
2022-11-26T21:31:17.214Z,1.80
2022-11-26T21:34:05.915Z,1.80
2022-11-26T21:36:35.499Z,1.90
2022-11-26T21:39:06.491Z,1.90
2022-11-26T21:41:33.968Z,1.90
2022-11-26T21:44:04.372Z,1.90
2022-11-26T21:46:37.847Z,1.90
2022-11-26T21:49:06.985Z,1.90
2022-11-26T21:51:34.272Z,1.90
2022-11-26T21:54:01.281Z,2.00
2022-11-26T21:56:31.001Z,1.90
2022-11-26T21:58:59.647Z,1.90
2022-11-26T22:01:32.418Z,2.00
2022-11-26T22:04:01.788Z,2.00
2022-11-26T22:06:29.633Z,1.90
2022-11-26T22:08:56.887Z,2.00
2022-11-26T22:11:27.155Z,2.00
2022-11-26T22:13:55.045Z,2.00
2022-11-26T22:16:23.891Z,2.00
2022-11-26T22:18:51.616Z,2.00
2022-11-26T22:21:22.722Z,1.90
2022-11-26T22:23:51.067Z,2.00
2022-11-26T22:26:19.740Z,1.90
2022-11-26T22:28:52.394Z,1.90
2022-11-26T22:31:33.803Z,1.90
2022-11-26T22:34:03.627Z,1.90
2022-11-26T22:36:31.899Z,1.90
2022-11-26T22:38:59.921Z,1.90
2022-11-26T22:41:30.011Z,1.90
2022-11-26T22:43:59.758Z,1.90
2022-11-26T22:46:27.206Z,1.90
2022-11-26T22:48:57.087Z,2.00
2022-11-26T22:51:26.311Z,1.90
2022-11-26T22:53:56.363Z,1.90
2022-11-26T22:56:24.889Z,2.00
2022-11-26T22:58:51.991Z,2.00
2022-11-26T23:01:22.201Z,2.00
2022-11-26T23:03:50.134Z,1.90
2022-11-26T23:06:19.449Z,2.00
2022-11-26T23:08:47.131Z,2.10
2022-11-26T23:11:23.671Z,2.00
2022-11-26T23:13:51.563Z,2.00
2022-11-26T23:16:20.797Z,2.00
2022-11-26T23:18:48.174Z,2.00
2022-11-26T23:21:30.308Z,2.10
2022-11-26T23:23:57.760Z,2.10
2022-11-26T23:26:32.136Z,2.10
2022-11-26T23:29:01.424Z,2.10
2022-11-26T23:31:31.594Z,2.10
2022-11-26T23:34:00.900Z,2.10
2022-11-26T23:36:29.320Z,2.10
2022-11-26T23:38:56.776Z,2.10
2022-11-26T23:41:24.112Z,2.10
2022-11-26T23:43:51.272Z,2.10
2022-11-26T23:46:21.546Z,2.10
2022-11-26T23:48:49.289Z,2.10
2022-11-26T23:51:19.498Z,2.10
2022-11-26T23:53:50.836Z,2.10
2022-11-26T23:56:21.424Z,2.10
2022-11-26T23:58:50.399Z,2.10
